Sunol, California
Current Conditions -  °F | °C
As of 4:53 PM on Wednesday 26 Nov 2014 (Local Time) from KLVK Reporting Station
Clear Clear  
Wind Chill: 63°   Ceiling: Unl
Heat Index: 63°   Visibility: 7mi
Dew Point: 46°   Wind: 8mph
Humidity: 54%   Direction: 50°NE
Pressure: 30.21"   Gusts: NA
Location:  37.6°N, 121.9°W
Report Text: KLVK 270053Z AUTO 05007KT 7SM CLR 17/08 A3021 RMK AO2 SLP230 T01720078 TSNO
Loading
Personal Weather Stations






























Interactive Weather Map New forecast layout! Learn more

10-Day Weather Forecast

Advertisements
Track Severe Weather on mobile